sensor_id;sensor_type;location;lat;lon;timestamp;temperature;humidity
3360;DHT22;1693;49.602;11.046;2022-08-02T00:01:48;17.20;99.90
3360;DHT22;1693;49.602;11.046;2022-08-02T00:04:15;17.20;99.90
3360;DHT22;1693;49.602;11.046;2022-08-02T00:06:44;17.30;99.90
3360;DHT22;1693;49.602;11.046;2022-08-02T00:09:11;17.30;99.90
3360;DHT22;1693;49.602;11.046;2022-08-02T00:11:39;17.40;99.90
3360;DHT22;1693;49.602;11.046;2022-08-02T00:14:06;17.30;99.90
3360;DHT22;1693;49.602;11.046;2022-08-02T00:16:34;17.20;99.90
3360;DHT22;1693;49.602;11.046;2022-08-02T00:19:01;17.10;99.90
3360;DHT22;1693;49.602;11.046;2022-08-02T00:21:28;17.00;99.90
3360;DHT22;1693;49.602;11.046;2022-08-02T00:23:56;16.90;99.90
3360;DHT22;1693;49.602;11.046;2022-08-02T00:26:23;16.90;99.90
3360;DHT22;1693;49.602;11.046;2022-08-02T00:28:51;16.80;99.90
3360;DHT22;1693;49.602;11.046;2022-08-02T00:31:18;16.80;99.90
3360;DHT22;1693;49.602;11.046;2022-08-02T00:33:45;16.70;99.90
3360;DHT22;1693;49.602;11.046;2022-08-02T00:36:12;16.60;99.90
3360;DHT22;1693;49.602;11.046;2022-08-02T00:38:39;16.60;99.90
3360;DHT22;1693;49.602;11.046;2022-08-02T00:41:13;16.50;99.90
3360;DHT22;1693;49.602;11.046;2022-08-02T00:43:41;16.40;99.90
3360;DHT22;1693;49.602;11.046;2022-08-02T00:46:09;16.30;99.90
3360;DHT22;1693;49.602;11.046;2022-08-02T00:48:36;16.30;99.90
3360;DHT22;1693;49.602;11.046;2022-08-02T00:51:03;16.30;99.90
3360;DHT22;1693;49.602;11.046;2022-08-02T00:53:31;16.30;99.90
3360;DHT22;1693;49.602;11.046;2022-08-02T00:55:58;16.20;99.90
3360;DHT22;1693;49.602;11.046;2022-08-02T00:58:26;16.20;99.90
3360;DHT22;1693;49.602;11.046;2022-08-02T01:00:54;16.20;99.90
3360;DHT22;1693;49.602;11.046;2022-08-02T01:03:22;16.10;99.90
3360;DHT22;1693;49.602;11.046;2022-08-02T01:05:49;16.00;99.90
3360;DHT22;1693;49.602;11.046;2022-08-02T01:08:16;16.00;99.90
3360;DHT22;1693;49.602;11.046;2022-08-02T01:10:44;16.00;99.90
3360;DHT22;1693;49.602;11.046;2022-08-02T01:13:11;16.10;99.90
3360;DHT22;1693;49.602;11.046;2022-08-02T01:15:51;16.20;99.90
3360;DHT22;1693;49.602;11.046;2022-08-02T01:18:24;16.20;99.90
3360;DHT22;1693;49.602;11.046;2022-08-02T01:24:03;16.10;99.90
3360;DHT22;1693;49.602;11.046;2022-08-02T01:26:42;16.00;99.90
3360;DHT22;1693;49.602;11.046;2022-08-02T01:29:14;15.90;99.90
3360;DHT22;1693;49.602;11.046;2022-08-02T01:31:48;15.60;99.90
3360;DHT22;1693;49.602;11.046;2022-08-02T01:34:18;15.80;99.90
3360;DHT22;1693;49.602;11.046;2022-08-02T01:36:54;15.70;99.90
3360;DHT22;1693;49.602;11.046;2022-08-02T01:39:26;15.70;99.90
3360;DHT22;1693;49.602;11.046;2022-08-02T01:41:56;15.60;99.90
3360;DHT22;1693;49.602;11.046;2022-08-02T01:44:28;15.60;99.90
3360;DHT22;1693;49.602;11.046;2022-08-02T01:46:59;15.60;99.90
3360;DHT22;1693;49.602;11.046;2022-08-02T01:49:29;15.50;99.90
3360;DHT22;1693;49.602;11.046;2022-08-02T01:51:58;15.50;99.90
3360;DHT22;1693;49.602;11.046;2022-08-02T01:54:44;15.40;99.90
3360;DHT22;1693;49.602;11.046;2022-08-02T01:57:13;15.40;99.90
3360;DHT22;1693;49.602;11.046;2022-08-02T01:59:44;15.30;99.90
3360;DHT22;1693;49.602;11.046;2022-08-02T02:02:14;15.40;99.90
3360;DHT22;1693;49.602;11.046;2022-08-02T02:04:43;15.40;99.90
3360;DHT22;1693;49.602;11.046;2022-08-02T02:07:12;15.40;99.90
3360;DHT22;1693;49.602;11.046;2022-08-02T02:09:42;15.40;99.90
3360;DHT22;1693;49.602;11.046;2022-08-02T02:12:12;15.30;99.90
3360;DHT22;1693;49.602;11.046;2022-08-02T02:14:43;15.30;99.90
3360;DHT22;1693;49.602;11.046;2022-08-02T02:17:11;15.30;99.90
3360;DHT22;1693;49.602;11.046;2022-08-02T02:19:39;15.30;99.90
3360;DHT22;1693;49.602;11.046;2022-08-02T02:22:07;15.30;99.90
3360;DHT22;1693;49.602;11.046;2022-08-02T02:24:34;15.20;99.90
3360;DHT22;1693;49.602;11.046;2022-08-02T02:27:02;15.20;99.90
3360;DHT22;1693;49.602;11.046;2022-08-02T02:29:30;15.20;99.90
3360;DHT22;1693;49.602;11.046;2022-08-02T02:32:00;15.20;99.90
3360;DHT22;1693;49.602;11.046;2022-08-02T02:34:28;15.20;99.90
3360;DHT22;1693;49.602;11.046;2022-08-02T02:37:00;15.10;99.90
3360;DHT22;1693;49.602;11.046;2022-08-02T02:39:30;15.10;99.90
3360;DHT22;1693;49.602;11.046;2022-08-02T02:42:01;15.10;99.90
3360;DHT22;1693;49.602;11.046;2022-08-02T02:44:30;15.20;99.90
3360;DHT22;1693;49.602;11.046;2022-08-02T02:47:00;15.20;99.90
3360;DHT22;1693;49.602;11.046;2022-08-02T02:49:31;15.10;99.90
3360;DHT22;1693;49.602;11.046;2022-08-02T02:51:59;15.10;99.90
3360;DHT22;1693;49.602;11.046;2022-08-02T02:54:28;15.00;99.90
3360;DHT22;1693;49.602;11.046;2022-08-02T02:56:57;15.00;99.90
3360;DHT22;1693;49.602;11.046;2022-08-02T02:59:25;15.00;99.90
3360;DHT22;1693;49.602;11.046;2022-08-02T03:01:52;15.10;99.90
3360;DHT22;1693;49.602;11.046;2022-08-02T03:04:21;15.10;99.90
3360;DHT22;1693;49.602;11.046;2022-08-02T03:06:49;15.00;99.90
3360;DHT22;1693;49.602;11.046;2022-08-02T03:09:16;15.00;99.90
3360;DHT22;1693;49.602;11.046;2022-08-02T03:11:43;15.00;99.90
3360;DHT22;1693;49.602;11.046;2022-08-02T03:14:11;15.00;99.90
3360;DHT22;1693;49.602;11.046;2022-08-02T03:16:42;15.00;99.90
3360;DHT22;1693;49.602;11.046;2022-08-02T03:19:09;15.00;99.90
3360;DHT22;1693;49.602;11.046;2022-08-02T03:21:38;15.00;99.90
3360;DHT22;1693;49.602;11.046;2022-08-02T03:24:06;15.00;99.90
3360;DHT22;1693;49.602;11.046;2022-08-02T03:26:33;15.00;99.90
3360;DHT22;1693;49.602;11.046;2022-08-02T03:29:01;15.10;99.90
3360;DHT22;1693;49.602;11.046;2022-08-02T03:31:28;15.00;99.90
3360;DHT22;1693;49.602;11.046;2022-08-02T03:33:55;15.10;99.90
3360;DHT22;1693;49.602;11.046;2022-08-02T03:36:27;15.00;99.90
3360;DHT22;1693;49.602;11.046;2022-08-02T03:38:56;15.00;99.90
3360;DHT22;1693;49.602;11.046;2022-08-02T03:41:24;14.90;99.90
3360;DHT22;1693;49.602;11.046;2022-08-02T03:43:51;14.80;99.90
3360;DHT22;1693;49.602;11.046;2022-08-02T03:46:21;14.80;99.90
3360;DHT22;1693;49.602;11.046;2022-08-02T03:48:50;14.80;99.90
3360;DHT22;1693;49.602;11.046;2022-08-02T03:51:18;14.80;99.90
3360;DHT22;1693;49.602;11.046;2022-08-02T03:53:46;14.80;99.90
3360;DHT22;1693;49.602;11.046;2022-08-02T03:56:15;14.80;99.90
3360;DHT22;1693;49.602;11.046;2022-08-02T03:58:42;14.80;99.90
3360;DHT22;1693;49.602;11.046;2022-08-02T04:01:10;14.80;99.90
3360;DHT22;1693;49.602;11.046;2022-08-02T04:03:37;14.70;99.90
3360;DHT22;1693;49.602;11.046;2022-08-02T04:06:05;14.70;99.90
3360;DHT22;1693;49.602;11.046;2022-08-02T04:08:32;14.70;99.90
3360;DHT22;1693;49.602;11.046;2022-08-02T04:10:59;14.60;99.90
3360;DHT22;1693;49.602;11.046;2022-08-02T04:13:46;14.70;99.90
3360;DHT22;1693;49.602;11.046;2022-08-02T04:16:17;14.70;99.90
3360;DHT22;1693;49.602;11.046;2022-08-02T04:18:49;14.70;99.90
3360;DHT22;1693;49.602;11.046;2022-08-02T04:21:18;14.70;99.90
3360;DHT22;1693;49.602;11.046;2022-08-02T04:23:47;14.70;99.90
3360;DHT22;1693;49.602;11.046;2022-08-02T04:26:16;14.70;99.90
3360;DHT22;1693;49.602;11.046;2022-08-02T04:28:46;14.70;99.90
3360;DHT22;1693;49.602;11.046;2022-08-02T04:31:14;14.70;99.90
3360;DHT22;1693;49.602;11.046;2022-08-02T04:33:42;14.80;99.90
3360;DHT22;1693;49.602;11.046;2022-08-02T04:36:09;15.00;99.90
3360;DHT22;1693;49.602;11.046;2022-08-02T04:38:38;15.00;99.90
3360;DHT22;1693;49.602;11.046;2022-08-02T04:41:06;15.00;99.90
3360;DHT22;1693;49.602;11.046;2022-08-02T04:43:34;15.10;99.90
3360;DHT22;1693;49.602;11.046;2022-08-02T04:46:02;15.20;99.90
3360;DHT22;1693;49.602;11.046;2022-08-02T04:48:29;15.40;99.90
3360;DHT22;1693;49.602;11.046;2022-08-02T04:50:57;15.40;99.90
3360;DHT22;1693;49.602;11.046;2022-08-02T04:53:24;15.60;99.90
3360;DHT22;1693;49.602;11.046;2022-08-02T04:55:51;15.70;99.90
3360;DHT22;1693;49.602;11.046;2022-08-02T04:58:19;16.10;99.90
3360;DHT22;1693;49.602;11.046;2022-08-02T05:00:46;16.20;99.90
3360;DHT22;1693;49.602;11.046;2022-08-02T05:03:14;16.30;99.90
3360;DHT22;1693;49.602;11.046;2022-08-02T05:05:41;16.60;99.90
3360;DHT22;1693;49.602;11.046;2022-08-02T05:08:08;16.60;99.90
3360;DHT22;1693;49.602;11.046;2022-08-02T05:10:35;16.60;99.90
3360;DHT22;1693;49.602;11.046;2022-08-02T05:13:04;16.60;99.90
3360;DHT22;1693;49.602;11.046;2022-08-02T05:15:31;16.80;99.90
3360;DHT22;1693;49.602;11.046;2022-08-02T05:17:58;16.80;99.90
3360;DHT22;1693;49.602;11.046;2022-08-02T05:20:26;16.90;99.90
3360;DHT22;1693;49.602;11.046;2022-08-02T05:22:53;17.00;99.90
3360;DHT22;1693;49.602;11.046;2022-08-02T05:25:20;17.20;99.90
3360;DHT22;1693;49.602;11.046;2022-08-02T05:27:47;17.40;99.90
3360;DHT22;1693;49.602;11.046;2022-08-02T05:30:14;17.60;99.90
3360;DHT22;1693;49.602;11.046;2022-08-02T05:32:43;17.90;99.90
3360;DHT22;1693;49.602;11.046;2022-08-02T05:35:10;18.10;99.90
3360;DHT22;1693;49.602;11.046;2022-08-02T05:37:39;18.40;99.90
3360;DHT22;1693;49.602;11.046;2022-08-02T05:40:07;18.30;99.90
3360;DHT22;1693;49.602;11.046;2022-08-02T05:42:35;18.50;99.90
3360;DHT22;1693;49.602;11.046;2022-08-02T05:45:02;18.50;99.90
3360;DHT22;1693;49.602;11.046;2022-08-02T05:47:30;18.70;99.90
3360;DHT22;1693;49.602;11.046;2022-08-02T05:49:57;18.90;99.90
3360;DHT22;1693;49.602;11.046;2022-08-02T05:52:25;18.90;99.90
3360;DHT22;1693;49.602;11.046;2022-08-02T05:55:04;19.10;99.90
3360;DHT22;1693;49.602;11.046;2022-08-02T05:57:38;19.10;99.90
3360;DHT22;1693;49.602;11.046;2022-08-02T06:00:08;19.00;99.90
3360;DHT22;1693;49.602;11.046;2022-08-02T06:02:55;19.20;99.90
3360;DHT22;1693;49.602;11.046;2022-08-02T06:05:26;19.40;99.90
3360;DHT22;1693;49.602;11.046;2022-08-02T06:07:57;19.40;99.90
3360;DHT22;1693;49.602;11.046;2022-08-02T06:10:27;19.40;99.90
3360;DHT22;1693;49.602;11.046;2022-08-02T06:13:04;19.80;99.90
3360;DHT22;1693;49.602;11.046;2022-08-02T06:15:33;19.90;99.90
3360;DHT22;1693;49.602;11.046;2022-08-02T06:18:01;19.80;99.90
3360;DHT22;1693;49.602;11.046;2022-08-02T06:20:29;19.90;99.90
3360;DHT22;1693;49.602;11.046;2022-08-02T06:23:01;19.90;99.90
3360;DHT22;1693;49.602;11.046;2022-08-02T06:25:32;19.90;99.90
3360;DHT22;1693;49.602;11.046;2022-08-02T06:28:02;20.20;99.90
3360;DHT22;1693;49.602;11.046;2022-08-02T06:30:30;20.30;99.90
3360;DHT22;1693;49.602;11.046;2022-08-02T06:32:58;20.40;99.90
3360;DHT22;1693;49.602;11.046;2022-08-02T06:35:32;20.50;99.90
3360;DHT22;1693;49.602;11.046;2022-08-02T06:38:01;20.50;99.90
3360;DHT22;1693;49.602;11.046;2022-08-02T06:40:31;20.30;99.90
3360;DHT22;1693;49.602;11.046;2022-08-02T06:43:09;20.30;99.90
3360;DHT22;1693;49.602;11.046;2022-08-02T06:45:38;20.30;99.90
3360;DHT22;1693;49.602;11.046;2022-08-02T06:48:06;20.40;99.90
3360;DHT22;1693;49.602;11.046;2022-08-02T06:50:34;20.80;99.90
3360;DHT22;1693;49.602;11.046;2022-08-02T06:53:03;21.00;99.90
3360;DHT22;1693;49.602;11.046;2022-08-02T06:55:32;21.10;99.90
3360;DHT22;1693;49.602;11.046;2022-08-02T06:57:59;21.40;99.90
3360;DHT22;1693;49.602;11.046;2022-08-02T07:00:28;21.50;99.90
3360;DHT22;1693;49.602;11.046;2022-08-02T07:02:55;21.70;99.90
3360;DHT22;1693;49.602;11.046;2022-08-02T07:05:23;22.00;99.90
3360;DHT22;1693;49.602;11.046;2022-08-02T07:07:50;22.40;99.90
3360;DHT22;1693;49.602;11.046;2022-08-02T07:10:17;22.70;99.90
3360;DHT22;1693;49.602;11.046;2022-08-02T07:12:45;22.50;99.90
3360;DHT22;1693;49.602;11.046;2022-08-02T07:15:13;22.40;99.90
3360;DHT22;1693;49.602;11.046;2022-08-02T07:17:40;22.60;99.90
3360;DHT22;1693;49.602;11.046;2022-08-02T07:20:08;22.20;99.90
3360;DHT22;1693;49.602;11.046;2022-08-02T07:22:35;22.30;99.90
3360;DHT22;1693;49.602;11.046;2022-08-02T07:25:04;22.30;99.90
3360;DHT22;1693;49.602;11.046;2022-08-02T07:27:31;22.40;99.90
3360;DHT22;1693;49.602;11.046;2022-08-02T07:30:00;22.50;99.90
3360;DHT22;1693;49.602;11.046;2022-08-02T07:32:29;22.30;99.90
3360;DHT22;1693;49.602;11.046;2022-08-02T07:34:57;22.40;99.90
3360;DHT22;1693;49.602;11.046;2022-08-02T07:37:26;22.40;99.90
3360;DHT22;1693;49.602;11.046;2022-08-02T07:39:53;22.60;99.90
3360;DHT22;1693;49.602;11.046;2022-08-02T07:42:20;22.70;99.90
3360;DHT22;1693;49.602;11.046;2022-08-02T07:44:47;22.80;99.90
3360;DHT22;1693;49.602;11.046;2022-08-02T07:47:15;23.00;99.90
3360;DHT22;1693;49.602;11.046;2022-08-02T07:49:43;22.60;99.90
3360;DHT22;1693;49.602;11.046;2022-08-02T07:52:11;22.60;99.90
3360;DHT22;1693;49.602;11.046;2022-08-02T07:54:43;23.30;99.90
3360;DHT22;1693;49.602;11.046;2022-08-02T07:57:12;23.80;99.90
3360;DHT22;1693;49.602;11.046;2022-08-02T07:59:40;24.20;99.90
3360;DHT22;1693;49.602;11.046;2022-08-02T08:02:07;24.60;99.90
3360;DHT22;1693;49.602;11.046;2022-08-02T08:04:36;24.90;99.90
3360;DHT22;1693;49.602;11.046;2022-08-02T08:07:03;25.30;99.90
3360;DHT22;1693;49.602;11.046;2022-08-02T08:09:32;25.50;99.90
3360;DHT22;1693;49.602;11.046;2022-08-02T08:11:59;25.70;99.90
3360;DHT22;1693;49.602;11.046;2022-08-02T08:14:26;25.70;99.90
3360;DHT22;1693;49.602;11.046;2022-08-02T08:16:53;25.60;99.90
3360;DHT22;1693;49.602;11.046;2022-08-02T08:19:20;25.60;99.90
3360;DHT22;1693;49.602;11.046;2022-08-02T08:21:49;25.90;99.90
3360;DHT22;1693;49.602;11.046;2022-08-02T08:24:16;26.00;99.90
3360;DHT22;1693;49.602;11.046;2022-08-02T08:26:43;26.00;99.90
3360;DHT22;1693;49.602;11.046;2022-08-02T08:29:11;25.80;99.90
3360;DHT22;1693;49.602;11.046;2022-08-02T08:31:38;25.70;99.90
3360;DHT22;1693;49.602;11.046;2022-08-02T08:34:05;25.80;99.90
3360;DHT22;1693;49.602;11.046;2022-08-02T08:36:32;25.90;99.90
3360;DHT22;1693;49.602;11.046;2022-08-02T08:39:01;25.90;99.90
3360;DHT22;1693;49.602;11.046;2022-08-02T08:41:28;25.90;99.90
3360;DHT22;1693;49.602;11.046;2022-08-02T08:43:55;26.10;99.90
3360;DHT22;1693;49.602;11.046;2022-08-02T08:46:27;26.40;99.90
3360;DHT22;1693;49.602;11.046;2022-08-02T08:48:58;26.60;99.90
3360;DHT22;1693;49.602;11.046;2022-08-02T08:51:29;26.50;99.90
3360;DHT22;1693;49.602;11.046;2022-08-02T08:53:59;26.20;99.90
3360;DHT22;1693;49.602;11.046;2022-08-02T08:56:32;26.20;99.90
3360;DHT22;1693;49.602;11.046;2022-08-02T08:58:59;26.00;99.90
3360;DHT22;1693;49.602;11.046;2022-08-02T09:01:26;25.80;99.90
3360;DHT22;1693;49.602;11.046;2022-08-02T09:03:53;25.80;99.90
3360;DHT22;1693;49.602;11.046;2022-08-02T09:06:21;25.80;99.90
3360;DHT22;1693;49.602;11.046;2022-08-02T09:08:48;26.00;99.90
3360;DHT22;1693;49.602;11.046;2022-08-02T09:11:16;26.10;99.90
3360;DHT22;1693;49.602;11.046;2022-08-02T09:13:52;26.20;99.90
3360;DHT22;1693;49.602;11.046;2022-08-02T09:16:31;26.40;99.90
3360;DHT22;1693;49.602;11.046;2022-08-02T09:18:59;26.20;99.90
3360;DHT22;1693;49.602;11.046;2022-08-02T09:21:34;26.30;99.90
3360;DHT22;1693;49.602;11.046;2022-08-02T09:24:02;26.30;99.90
3360;DHT22;1693;49.602;11.046;2022-08-02T09:26:40;26.30;99.90
3360;DHT22;1693;49.602;11.046;2022-08-02T09:29:09;26.40;99.90
3360;DHT22;1693;49.602;11.046;2022-08-02T09:31:36;26.30;99.90
3360;DHT22;1693;49.602;11.046;2022-08-02T09:34:03;26.40;99.90
3360;DHT22;1693;49.602;11.046;2022-08-02T09:36:37;26.30;99.90
3360;DHT22;1693;49.602;11.046;2022-08-02T09:39:06;26.40;99.90
3360;DHT22;1693;49.602;11.046;2022-08-02T09:41:35;26.30;99.90
3360;DHT22;1693;49.602;11.046;2022-08-02T09:44:04;26.30;99.90
3360;DHT22;1693;49.602;11.046;2022-08-02T09:46:35;26.40;99.90
3360;DHT22;1693;49.602;11.046;2022-08-02T09:49:05;26.60;99.90
3360;DHT22;1693;49.602;11.046;2022-08-02T09:51:34;26.70;99.90
3360;DHT22;1693;49.602;11.046;2022-08-02T09:54:03;26.90;99.90
3360;DHT22;1693;49.602;11.046;2022-08-02T09:56:40;26.90;99.90
3360;DHT22;1693;49.602;11.046;2022-08-02T09:59:10;27.10;99.90
3360;DHT22;1693;49.602;11.046;2022-08-02T10:01:40;27.20;99.90
3360;DHT22;1693;49.602;11.046;2022-08-02T10:04:10;27.30;99.90
3360;DHT22;1693;49.602;11.046;2022-08-02T10:06:38;27.30;99.90
3360;DHT22;1693;49.602;11.046;2022-08-02T10:09:07;27.40;99.90
3360;DHT22;1693;49.602;11.046;2022-08-02T10:11:35;27.50;98.70
3360;DHT22;1693;49.602;11.046;2022-08-02T10:14:03;27.20;98.50
3360;DHT22;1693;49.602;11.046;2022-08-02T10:16:35;27.70;99.90
3360;DHT22;1693;49.602;11.046;2022-08-02T10:19:04;28.20;98.30
3360;DHT22;1693;49.602;11.046;2022-08-02T10:21:37;28.40;97.10
3360;DHT22;1693;49.602;11.046;2022-08-02T10:24:08;28.70;96.40
3360;DHT22;1693;49.602;11.046;2022-08-02T10:26:42;28.90;96.20
3360;DHT22;1693;49.602;11.046;2022-08-02T10:29:13;29.00;97.10
3360;DHT22;1693;49.602;11.046;2022-08-02T10:31:43;29.10;94.50
3360;DHT22;1693;49.602;11.046;2022-08-02T10:34:17;29.00;94.70
3360;DHT22;1693;49.602;11.046;2022-08-02T10:36:47;29.10;95.30
3360;DHT22;1693;49.602;11.046;2022-08-02T10:39:15;29.30;93.50
3360;DHT22;1693;49.602;11.046;2022-08-02T10:41:47;29.30;92.10
3360;DHT22;1693;49.602;11.046;2022-08-02T10:44:24;29.60;93.00
3360;DHT22;1693;49.602;11.046;2022-08-02T10:46:51;29.60;91.30
3360;DHT22;1693;49.602;11.046;2022-08-02T10:49:21;29.60;92.00
3360;DHT22;1693;49.602;11.046;2022-08-02T10:52:04;29.70;92.70
3360;DHT22;1693;49.602;11.046;2022-08-02T10:54:34;30.00;92.00
3360;DHT22;1693;49.602;11.046;2022-08-02T10:57:03;30.30;92.50
3360;DHT22;1693;49.602;11.046;2022-08-02T10:59:39;30.20;92.00
3360;DHT22;1693;49.602;11.046;2022-08-02T11:02:06;30.50;91.30
3360;DHT22;1693;49.602;11.046;2022-08-02T11:05:03;30.60;88.60
3360;DHT22;1693;49.602;11.046;2022-08-02T11:07:32;30.30;87.50
3360;DHT22;1693;49.602;11.046;2022-08-02T11:10:27;30.50;88.50
3360;DHT22;1693;49.602;11.046;2022-08-02T11:13:09;30.80;85.70
3360;DHT22;1693;49.602;11.046;2022-08-02T11:15:57;30.70;85.60
3360;DHT22;1693;49.602;11.046;2022-08-02T11:19:03;30.10;90.10
3360;DHT22;1693;49.602;11.046;2022-08-02T11:21:33;30.80;90.70
3360;DHT22;1693;49.602;11.046;2022-08-02T11:24:23;30.60;87.30
3360;DHT22;1693;49.602;11.046;2022-08-02T11:26:50;30.60;87.40
3360;DHT22;1693;49.602;11.046;2022-08-02T11:29:17;30.70;87.10
3360;DHT22;1693;49.602;11.046;2022-08-02T11:31:46;30.60;84.30
3360;DHT22;1693;49.602;11.046;2022-08-02T11:34:15;30.50;83.60
3360;DHT22;1693;49.602;11.046;2022-08-02T11:36:45;30.10;83.90
3360;DHT22;1693;49.602;11.046;2022-08-02T11:39:15;30.30;85.60
3360;DHT22;1693;49.602;11.046;2022-08-02T11:41:42;30.40;85.20
3360;DHT22;1693;49.602;11.046;2022-08-02T11:44:13;30.60;86.20
3360;DHT22;1693;49.602;11.046;2022-08-02T11:46:41;30.90;85.10
3360;DHT22;1693;49.602;11.046;2022-08-02T11:49:12;31.30;82.60
3360;DHT22;1693;49.602;11.046;2022-08-02T11:51:51;31.40;80.10
3360;DHT22;1693;49.602;11.046;2022-08-02T11:54:27;31.40;80.50
3360;DHT22;1693;49.602;11.046;2022-08-02T11:56:54;31.50;79.90
3360;DHT22;1693;49.602;11.046;2022-08-02T11:59:36;31.80;80.00
3360;DHT22;1693;49.602;11.046;2022-08-02T12:02:05;32.40;78.60
3360;DHT22;1693;49.602;11.046;2022-08-02T12:04:32;32.70;76.10
3360;DHT22;1693;49.602;11.046;2022-08-02T12:07:02;32.40;74.00
3360;DHT22;1693;49.602;11.046;2022-08-02T12:09:32;32.30;73.70
3360;DHT22;1693;49.602;11.046;2022-08-02T12:11:59;32.40;73.50
3360;DHT22;1693;49.602;11.046;2022-08-02T12:14:28;32.40;71.60
3360;DHT22;1693;49.602;11.046;2022-08-02T12:16:56;32.70;74.50
3360;DHT22;1693;49.602;11.046;2022-08-02T12:19:41;33.80;70.10
3360;DHT22;1693;49.602;11.046;2022-08-02T12:22:12;33.80;70.80
3360;DHT22;1693;49.602;11.046;2022-08-02T12:24:41;34.60;65.40
3360;DHT22;1693;49.602;11.046;2022-08-02T12:27:09;35.10;64.60
3360;DHT22;1693;49.602;11.046;2022-08-02T12:29:37;35.60;62.90
3360;DHT22;1693;49.602;11.046;2022-08-02T12:32:05;36.50;61.80
3360;DHT22;1693;49.602;11.046;2022-08-02T12:34:36;36.60;59.00
3360;DHT22;1693;49.602;11.046;2022-08-02T12:37:11;35.40;59.80
3360;DHT22;1693;49.602;11.046;2022-08-02T12:39:41;35.10;63.40
3360;DHT22;1693;49.602;11.046;2022-08-02T12:42:10;35.80;59.90
3360;DHT22;1693;49.602;11.046;2022-08-02T12:44:48;36.70;59.00
3360;DHT22;1693;49.602;11.046;2022-08-02T12:47:16;38.10;57.00
3360;DHT22;1693;49.602;11.046;2022-08-02T12:49:43;39.70;54.80
3360;DHT22;1693;49.602;11.046;2022-08-02T12:52:22;39.50;52.30
3360;DHT22;1693;49.602;11.046;2022-08-02T12:54:50;40.80;51.00
3360;DHT22;1693;49.602;11.046;2022-08-02T12:57:18;41.40;49.70
3360;DHT22;1693;49.602;11.046;2022-08-02T12:59:49;41.40;48.50
3360;DHT22;1693;49.602;11.046;2022-08-02T13:02:17;41.40;50.20
3360;DHT22;1693;49.602;11.046;2022-08-02T13:04:45;40.70;47.70
3360;DHT22;1693;49.602;11.046;2022-08-02T13:07:13;39.50;48.50
3360;DHT22;1693;49.602;11.046;2022-08-02T13:09:42;39.00;49.00
3360;DHT22;1693;49.602;11.046;2022-08-02T13:12:12;39.60;48.20
3360;DHT22;1693;49.602;11.046;2022-08-02T13:14:39;38.90;48.70
3360;DHT22;1693;49.602;11.046;2022-08-02T13:17:06;38.00;50.00
3360;DHT22;1693;49.602;11.046;2022-08-02T13:19:33;37.80;50.60
3360;DHT22;1693;49.602;11.046;2022-08-02T13:22:01;37.70;51.50
3360;DHT22;1693;49.602;11.046;2022-08-02T13:24:29;38.60;49.80
3360;DHT22;1693;49.602;11.046;2022-08-02T13:26:57;39.90;49.00
3360;DHT22;1693;49.602;11.046;2022-08-02T13:29:24;40.90;46.90
3360;DHT22;1693;49.602;11.046;2022-08-02T13:31:51;40.20;47.30
3360;DHT22;1693;49.602;11.046;2022-08-02T13:34:18;41.30;46.70
3360;DHT22;1693;49.602;11.046;2022-08-02T13:36:45;41.00;46.60
3360;DHT22;1693;49.602;11.046;2022-08-02T13:39:12;41.70;45.10
3360;DHT22;1693;49.602;11.046;2022-08-02T13:41:39;41.30;44.40
3360;DHT22;1693;49.602;11.046;2022-08-02T13:44:08;42.20;44.80
3360;DHT22;1693;49.602;11.046;2022-08-02T13:46:36;43.60;43.80
3360;DHT22;1693;49.602;11.046;2022-08-02T13:49:04;44.00;42.50
3360;DHT22;1693;49.602;11.046;2022-08-02T13:51:31;43.10;41.60
3360;DHT22;1693;49.602;11.046;2022-08-02T13:53:58;41.90;42.10
3360;DHT22;1693;49.602;11.046;2022-08-02T13:56:25;42.00;43.30
3360;DHT22;1693;49.602;11.046;2022-08-02T13:58:53;41.80;42.10
3360;DHT22;1693;49.602;11.046;2022-08-02T14:01:21;41.50;42.80
3360;DHT22;1693;49.602;11.046;2022-08-02T14:03:48;42.10;42.50
3360;DHT22;1693;49.602;11.046;2022-08-02T14:06:15;42.00;42.80
3360;DHT22;1693;49.602;11.046;2022-08-02T14:08:43;41.90;42.00
3360;DHT22;1693;49.602;11.046;2022-08-02T14:11:10;42.00;42.40
3360;DHT22;1693;49.602;11.046;2022-08-02T14:13:38;43.20;43.20
3360;DHT22;1693;49.602;11.046;2022-08-02T14:16:05;42.90;41.30
3360;DHT22;1693;49.602;11.046;2022-08-02T14:18:34;43.80;42.30
3360;DHT22;1693;49.602;11.046;2022-08-02T14:21:01;45.40;39.30
3360;DHT22;1693;49.602;11.046;2022-08-02T14:23:28;44.70;39.70
3360;DHT22;1693;49.602;11.046;2022-08-02T14:25:57;44.80;38.90
3360;DHT22;1693;49.602;11.046;2022-08-02T14:30:51;45.90;37.60
3360;DHT22;1693;49.602;11.046;2022-08-02T14:33:19;45.50;38.40
3360;DHT22;1693;49.602;11.046;2022-08-02T14:35:47;45.00;37.30
3360;DHT22;1693;49.602;11.046;2022-08-02T14:38:14;44.40;38.30
3360;DHT22;1693;49.602;11.046;2022-08-02T14:40:43;44.60;38.10
3360;DHT22;1693;49.602;11.046;2022-08-02T14:43:11;42.60;37.90
3360;DHT22;1693;49.602;11.046;2022-08-02T14:45:59;42.10;38.50
3360;DHT22;1693;49.602;11.046;2022-08-02T14:48:26;42.90;39.00
3360;DHT22;1693;49.602;11.046;2022-08-02T14:50:55;42.30;39.30
3360;DHT22;1693;49.602;11.046;2022-08-02T14:53:22;41.90;39.60
3360;DHT22;1693;49.602;11.046;2022-08-02T14:55:49;43.20;38.90
3360;DHT22;1693;49.602;11.046;2022-08-02T14:58:16;44.60;38.00
3360;DHT22;1693;49.602;11.046;2022-08-02T15:00:45;44.80;37.30
3360;DHT22;1693;49.602;11.046;2022-08-02T15:03:12;44.80;36.80
3360;DHT22;1693;49.602;11.046;2022-08-02T15:05:40;43.70;37.60
3360;DHT22;1693;49.602;11.046;2022-08-02T15:08:08;43.40;37.90
3360;DHT22;1693;49.602;11.046;2022-08-02T15:10:35;43.20;37.80
3360;DHT22;1693;49.602;11.046;2022-08-02T15:13:02;42.70;38.10
3360;DHT22;1693;49.602;11.046;2022-08-02T15:15:31;41.80;39.00
3360;DHT22;1693;49.602;11.046;2022-08-02T15:17:58;41.60;39.70
3360;DHT22;1693;49.602;11.046;2022-08-02T15:20:25;41.70;39.70
3360;DHT22;1693;49.602;11.046;2022-08-02T15:22:53;42.00;38.90
3360;DHT22;1693;49.602;11.046;2022-08-02T15:25:21;42.40;37.70
3360;DHT22;1693;49.602;11.046;2022-08-02T15:27:48;43.40;37.30
3360;DHT22;1693;49.602;11.046;2022-08-02T15:30:16;43.80;37.30
3360;DHT22;1693;49.602;11.046;2022-08-02T15:32:43;44.00;36.70
3360;DHT22;1693;49.602;11.046;2022-08-02T15:35:11;43.90;36.10
3360;DHT22;1693;49.602;11.046;2022-08-02T15:37:38;43.70;36.80
3360;DHT22;1693;49.602;11.046;2022-08-02T15:40:06;43.40;37.60
3360;DHT22;1693;49.602;11.046;2022-08-02T15:42:35;42.40;37.60
3360;DHT22;1693;49.602;11.046;2022-08-02T15:45:02;42.50;36.90
3360;DHT22;1693;49.602;11.046;2022-08-02T15:47:30;44.30;37.00
3360;DHT22;1693;49.602;11.046;2022-08-02T15:49:57;45.00;36.40
3360;DHT22;1693;49.602;11.046;2022-08-02T15:52:24;44.60;35.90
3360;DHT22;1693;49.602;11.046;2022-08-02T15:54:51;44.40;36.30
3360;DHT22;1693;49.602;11.046;2022-08-02T15:57:18;44.20;36.00
3360;DHT22;1693;49.602;11.046;2022-08-02T15:59:47;42.70;36.80
3360;DHT22;1693;49.602;11.046;2022-08-02T16:02:14;42.40;36.40
3360;DHT22;1693;49.602;11.046;2022-08-02T16:04:43;41.90;36.50